Time;durP1;ratioP1;P1;durP2;ratioP2;P2;SDS_P1;SDS_P2;PMS_P1;PMS_P2;Temp;Humidity;BMP_temperature;BMP_pressure;BME280_temperature;BME280_humidity;BME280_pressure;Samples;Min_cycle;Max_cycle;Signal;HPM_P1;HPM_P2
2023/03/04 00:00:57;;;;;;;10.10;7.60;;;;;;;;;;102852;1334;44133;-29
2023/03/04 00:03:27;;;;;;;9.30;7.40;;;;;;;;;;102824;1333;45501;-29
2023/03/04 00:05:57;;;;;;;10.10;7.70;;;;;;;;;;102837;1334;40029;-29
2023/03/04 00:08:30;;;;;;;9.10;7.10;;;;;;;;;;103104;1327;42659;-29
2023/03/04 00:11:01;;;;;;;9.10;7.00;;;;;;;;;;103258;1328;44427;-29
2023/03/04 00:13:33;;;;;;;9.40;7.30;;;;;;;;;;103314;1328;42912;-29
2023/03/04 00:16:04;;;;;;;9.40;7.20;;;;;;;;;;103309;1328;39647;-29
2023/03/04 00:18:34;;;;;;;9.30;7.40;;;;;;;;;;103022;1328;41261;-29
2023/03/04 00:21:07;;;;;;;10.10;7.50;;;;;;;;;;102800;1334;44612;-29
2023/03/04 00:23:40;;;;;;;9.90;7.30;;;;;;;;;;102795;1335;43361;-29
2023/03/04 00:26:12;;;;;;;9.90;7.30;;;;;;;;;;102810;1334;39648;-29
2023/03/04 00:28:47;;;;;;;9.10;7.30;;;;;;;;;;103079;1327;41398;-29
2023/03/04 00:31:22;;;;;;;9.50;7.20;;;;;;;;;;103317;1328;45917;-29
2023/03/04 00:33:52;;;;;;;9.70;7.30;;;;;;;;;;103188;1327;175544;-29
2023/03/04 00:36:25;;;;;;;9.10;7.00;;;;;;;;;;103304;1327;39627;-29
2023/03/04 00:38:58;;;;;;;9.30;7.10;;;;;;;;;;102975;1334;41106;-29
2023/03/04 00:41:32;;;;;;;8.90;7.00;;;;;;;;;;102829;1335;44468;-29
2023/03/04 00:44:06;;;;;;;9.40;7.10;;;;;;;;;;102821;1334;43111;-29
2023/03/04 00:46:39;;;;;;;9.50;7.30;;;;;;;;;;102822;1334;39431;-29
2023/03/04 00:49:10;;;;;;;9.00;7.00;;;;;;;;;;103061;1327;41218;-29
2023/03/04 00:51:41;;;;;;;8.70;6.50;;;;;;;;;;103294;1328;44444;-29
2023/03/04 00:54:11;;;;;;;9.70;7.20;;;;;;;;;;103298;1327;42910;-29
2023/03/04 00:56:46;;;;;;;9.00;7.00;;;;;;;;;;103283;1328;39504;-29
2023/03/04 00:59:20;;;;;;;9.50;7.00;;;;;;;;;;102982;1328;41156;-29
2023/03/04 01:01:52;;;;;;;8.70;6.80;;;;;;;;;;102802;1333;44265;-29
2023/03/04 01:04:26;;;;;;;9.80;7.20;;;;;;;;;;102809;1334;43196;-29
2023/03/04 01:06:57;;;;;;;9.70;7.00;;;;;;;;;;102803;1333;40846;-29
2023/03/04 01:09:30;;;;;;;9.60;6.60;;;;;;;;;;103045;1327;42679;-29
2023/03/04 01:12:00;;;;;;;9.10;7.10;;;;;;;;;;103181;1328;175534;-29
2023/03/04 01:14:31;;;;;;;9.30;6.90;;;;;;;;;;103292;1328;42868;-29
2023/03/04 01:17:04;;;;;;;9.40;7.00;;;;;;;;;;103273;1328;39687;-29
2023/03/04 01:19:37;;;;;;;10.20;7.20;;;;;;;;;;103019;1328;41178;-29
2023/03/04 01:22:11;;;;;;;9.90;7.30;;;;;;;;;;102585;1334;44951;-29
2023/03/04 01:24:41;;;;;;;9.70;6.90;;;;;;;;;;102806;1334;43201;-29
2023/03/04 01:27:14;;;;;;;10.00;7.50;;;;;;;;;;102808;1333;39615;-29
2023/03/04 01:29:44;;;;;;;9.60;6.80;;;;;;;;;;103011;1327;41354;-29
2023/03/04 01:32:17;;;;;;;8.70;6.70;;;;;;;;;;103287;1328;45684;-29
2023/03/04 01:34:49;;;;;;;9.40;6.80;;;;;;;;;;103296;1328;43497;-29
2023/03/04 01:37:25;;;;;;;9.60;6.70;;;;;;;;;;103274;1327;39774;-29
2023/03/04 01:39:55;;;;;;;9.70;6.80;;;;;;;;;;103015;1327;41329;-29
2023/03/04 01:42:29;;;;;;;9.50;6.60;;;;;;;;;;102755;1333;44906;-29
2023/03/04 01:45:03;;;;;;;9.90;7.10;;;;;;;;;;102799;1333;43149;-29
2023/03/04 01:47:36;;;;;;;8.90;6.40;;;;;;;;;;102827;1340;39609;-29
2023/03/04 01:50:18;;;;;;;9.20;6.30;;;;;;;;;;103033;1327;42762;-29
2023/03/04 01:52:51;;;;;;;9.20;6.60;;;;;;;;;;103302;1327;44766;-29
2023/03/04 01:55:30;;;;;;;9.50;6.80;;;;;;;;;;103188;1327;175905;-29
2023/03/04 01:58:00;;;;;;;9.70;6.60;;;;;;;;;;103301;1327;39394;-29
2023/03/04 02:00:36;;;;;;;9.70;6.80;;;;;;;;;;102941;1328;40987;-29
2023/03/04 02:03:10;;;;;;;8.80;6.40;;;;;;;;;;102746;1333;45884;-29
2023/03/04 02:05:45;;;;;;;9.20;6.60;;;;;;;;;;102810;1334;44285;-29
2023/03/04 02:08:21;;;;;;;9.40;6.50;;;;;;;;;;102714;1334;176812;-29
2023/03/04 02:10:57;;;;;;;9.70;6.50;;;;;;;;;;103092;1327;42853;-29
2023/03/04 02:13:29;;;;;;;9.80;6.70;;;;;;;;;;103283;1327;44534;-29
2023/03/04 02:16:06;;;;;;;9.50;6.80;;;;;;;;;;103321;1327;42977;-29
2023/03/04 02:18:36;;;;;;;9.40;6.30;;;;;;;;;;103300;1327;39677;-29
2023/03/04 02:21:19;;;;;;;9.40;6.30;;;;;;;;;;102966;1333;41138;-29
2023/03/04 02:23:56;;;;;;;8.70;6.60;;;;;;;;;;102796;1334;44482;-29
2023/03/04 02:26:28;;;;;;;8.80;6.40;;;;;;;;;;102790;1334;44129;-29
2023/03/04 02:29:02;;;;;;;8.60;6.40;;;;;;;;;;102789;1334;41027;-29
2023/03/04 02:31:36;;;;;;;8.90;6.40;;;;;;;;;;103148;1327;41464;-29
2023/03/04 02:34:12;;;;;;;9.20;6.20;;;;;;;;;;103295;1328;44893;-29
2023/03/04 02:36:44;;;;;;;9.30;6.20;;;;;;;;;;103315;1327;44080;-29
2023/03/04 02:39:23;;;;;;;8.70;6.30;;;;;;;;;;103288;1327;39394;-29
2023/03/04 02:41:55;;;;;;;9.50;6.40;;;;;;;;;;102865;1334;41290;-29
2023/03/04 02:44:26;;;;;;;;;;;;;;;;;;102800;1340;44413;-29
2023/03/04 02:46:58;;;;;;;8.80;6.40;;;;;;;;;;102789;1334;42540;-29
2023/03/04 02:49:33;;;;;;;9.00;6.50;;;;;;;;;;102797;1333;39655;-29
2023/03/04 02:52:07;;;;;;;8.60;6.00;;;;;;;;;;103165;1327;41390;-29
2023/03/04 02:54:43;;;;;;;9.20;6.30;;;;;;;;;;103167;1327;175870;-29
2023/03/04 02:57:15;;;;;;;8.50;6.30;;;;;;;;;;103291;1327;44315;-29
2023/03/04 02:59:51;;;;;;;9.00;6.40;;;;;;;;;;103308;1327;39457;-29
2023/03/04 03:02:22;;;;;;;8.30;6.10;;;;;;;;;;102741;1334;175611;-29
2023/03/04 03:04:56;;;;;;;8.20;6.00;;;;;;;;;;102823;1334;45848;-29
2023/03/04 03:07:29;;;;;;;8.20;5.90;;;;;;;;;;102802;1333;43042;-29
2023/03/04 03:10:01;;;;;;;8.90;5.90;;;;;;;;;;102802;1349;39385;-29
2023/03/04 03:12:31;;;;;;;8.50;6.20;;;;;;;;;;103186;1327;41550;-29
2023/03/04 03:15:04;;;;;;;8.70;6.00;;;;;;;;;;103275;1327;43916;-29
2023/03/04 03:17:35;;;;;;;8.80;5.90;;;;;;;;;;103305;1327;43130;-29
2023/03/04 03:20:11;;;;;;;8.30;6.10;;;;;;;;;;103315;1327;39771;-29
2023/03/04 03:22:42;;;;;;;9.00;6.50;;;;;;;;;;100619;1327;3010506;-29
2023/03/04 03:25:15;;;;;;;8.50;5.80;;;;;;;;;;103315;1327;43744;-29
2023/03/04 03:27:47;;;;;;;9.00;6.10;;;;;;;;;;103320;1327;43273;-29
2023/03/04 03:30:18;;;;;;;8.10;5.80;;;;;;;;;;103328;1327;39511;-29
2023/03/04 03:32:49;;;;;;;8.60;5.90;;;;;;;;;;100762;1327;3011329;-29
2023/03/04 03:35:30;;;;;;;8.50;6.00;;;;;;;;;;102805;1333;45087;-29
2023/03/04 03:38:03;;;;;;;8.70;5.80;;;;;;;;;;102846;1333;43075;-29
2023/03/04 03:40:36;;;;;;;8.20;5.70;;;;;;;;;;102888;1335;39472;-29
2023/03/04 03:43:06;;;;;;;8.50;5.80;;;;;;;;;;103213;1328;41271;-29
2023/03/04 03:45:38;;;;;;;8.30;5.90;;;;;;;;;;103309;1327;44225;-29
2023/03/04 03:48:11;;;;;;;8.70;5.50;;;;;;;;;;103317;1327;42975;-29
2023/03/04 03:50:42;;;;;;;8.10;5.60;;;;;;;;;;103305;1327;39382;-29
2023/03/04 03:53:13;;;;;;;8.20;5.60;;;;;;;;;;102892;1333;41076;-29
2023/03/04 03:55:43;;;;;;;8.40;6.00;;;;;;;;;;102876;1334;44181;-29
2023/03/04 03:58:18;;;;;;;7.50;5.60;;;;;;;;;;102831;1334;44343;-29
2023/03/04 04:00:51;;;;;;;8.00;5.30;;;;;;;;;;102843;1334;39655;-29
2023/03/04 04:03:24;;;;;;;8.40;5.40;;;;;;;;;;103198;1327;41302;-29
2023/03/04 04:05:55;;;;;;;7.90;5.40;;;;;;;;;;103361;1327;44139;-29
2023/03/04 04:08:25;;;;;;;8.00;5.40;;;;;;;;;;103313;1327;43659;-29
2023/03/04 04:10:55;;;;;;;7.90;5.50;;;;;;;;;;103324;1327;39539;-29
2023/03/04 04:13:27;;;;;;;7.60;5.30;;;;;;;;;;102943;1334;41118;-29
2023/03/04 04:15:58;;;;;;;8.30;5.80;;;;;;;;;;102853;1334;44351;-29
2023/03/04 04:18:28;;;;;;;8.20;5.50;;;;;;;;;;102845;1333;45037;-29
2023/03/04 04:21:02;;;;;;;7.90;5.10;;;;;;;;;;102215;1333;898651;-29
2023/03/04 04:23:33;;;;;;;7.60;5.20;;;;;;;;;;103108;1327;41120;-29
2023/03/04 04:26:03;;;;;;;8.00;5.10;;;;;;;;;;103307;1327;44230;-29
2023/03/04 04:28:33;;;;;;;8.00;5.60;;;;;;;;;;103364;1328;42756;-29
2023/03/04 04:31:08;;;;;;;7.80;5.50;;;;;;;;;;103326;1328;39501;-29
2023/03/04 04:33:38;;;;;;;7.80;5.70;;;;;;;;;;103030;1328;41334;-29
2023/03/04 04:36:13;;;;;;;7.60;5.10;;;;;;;;;;102809;1334;44351;-29
2023/03/04 04:38:44;;;;;;;7.30;5.20;;;;;;;;;;102832;1334;43115;-29
2023/03/04 04:41:22;;;;;;;7.20;5.10;;;;;;;;;;102827;1334;39933;-29
2023/03/04 04:43:52;;;;;;;7.60;4.90;;;;;;;;;;103116;1327;42555;-29
2023/03/04 04:46:23;;;;;;;7.20;4.80;;;;;;;;;;103332;1328;44477;-29
2023/03/04 04:48:54;;;;;;;7.10;5.30;;;;;;;;;;103411;1327;42986;-29
2023/03/04 04:51:29;;;;;;;7.10;4.80;;;;;;;;;;103350;1327;39254;-29
2023/03/04 04:54:01;;;;;;;7.40;5.40;;;;;;;;;;102979;1333;41016;-29
2023/03/04 04:56:33;;;;;;;;;;;;;;;;;;102845;1339;44308;-29
2023/03/04 04:59:07;;;;;;;7.90;5.20;;;;;;;;;;102841;1332;43233;-29
2023/03/04 05:01:41;;;;;;;8.40;5.30;;;;;;;;;;102858;1333;39924;-29
2023/03/04 05:04:15;;;;;;;7.40;5.00;;;;;;;;;;103090;1327;41385;-29
2023/03/04 05:06:47;;;;;;;7.50;4.80;;;;;;;;;;103317;1327;47245;-29
2023/03/04 05:09:19;;;;;;;7.20;4.70;;;;;;;;;;103331;1327;42889;-29
2023/03/04 05:11:49;;;;;;;7.70;4.80;;;;;;;;;;103370;1328;39708;-29
2023/03/04 05:14:20;;;;;;;6.70;4.70;;;;;;;;;;103023;1328;41100;-29
2023/03/04 05:16:51;;;;;;;7.30;4.90;;;;;;;;;;102844;1333;44259;-29
2023/03/04 05:19:24;;;;;;;7.30;4.80;;;;;;;;;;102843;1334;42933;-29
2023/03/04 05:21:54;;;;;;;7.10;4.70;;;;;;;;;;102829;1333;39624;-29
2023/03/04 05:24:24;;;;;;;6.40;4.70;;;;;;;;;;103043;1327;42772;-29
2023/03/04 05:26:55;;;;;;;8.90;5.20;;;;;;;;;;103304;1327;43959;-29
2023/03/04 05:29:28;;;;;;;10.00;5.70;;;;;;;;;;103339;1327;43517;-29
2023/03/04 05:31:58;;;;;;;11.00;6.20;;;;;;;;;;103339;1327;40664;-29
2023/03/04 05:34:31;;;;;;;11.40;6.00;;;;;;;;;;103008;1334;41130;-29
2023/03/04 05:37:03;;;;;;;10.30;6.20;;;;;;;;;;102813;1340;44778;-29
2023/03/04 05:39:34;;;;;;;9.70;6.10;;;;;;;;;;102812;1335;44540;-29
2023/03/04 05:42:05;;;;;;;9.50;5.80;;;;;;;;;;102813;1334;39763;-29
2023/03/04 05:44:35;;;;;;;10.00;6.20;;;;;;;;;;102706;1328;41371;-29
2023/03/04 05:47:06;;;;;;;8.90;6.00;;;;;;;;;;103260;1327;44610;-29
2023/03/04 05:49:39;;;;;;;11.00;6.10;;;;;;;;;;103293;1327;43193;-29
2023/03/04 05:52:10;;;;;;;9.30;6.20;;;;;;;;;;103311;1327;39384;-29
2023/03/04 05:54:41;;;;;;;9.30;5.80;;;;;;;;;;103080;1328;41453;-29
2023/03/04 05:57:13;;;;;;;11.00;6.20;;;;;;;;;;102803;1334;44577;-29
2023/03/04 05:59:48;;;;;;;8.60;5.80;;;;;;;;;;102833;1333;43435;-29
2023/03/04 06:02:18;;;;;;;10.50;6.00;;;;;;;;;;102835;1333;40841;-29
2023/03/04 06:04:49;;;;;;;9.70;6.00;;;;;;;;;;102966;1327;41698;-29
2023/03/04 06:07:19;;;;;;;9.20;5.50;;;;;;;;;;103311;1327;45450;-29
2023/03/04 06:09:49;;;;;;;11.60;6.10;;;;;;;;;;103292;1327;43002;-29
2023/03/04 06:12:22;;;;;;;8.70;5.40;;;;;;;;;;103314;1327;39509;-29
2023/03/04 06:14:53;;;;;;;8.90;5.20;;;;;;;;;;102866;1335;417062;-29
2023/03/04 06:17:25;;;;;;;8.20;5.40;;;;;;;;;;102829;1333;44681;-29
2023/03/04 06:19:55;;;;;;;7.70;4.90;;;;;;;;;;102866;1334;42895;-29
2023/03/04 06:22:30;;;;;;;8.60;5.10;;;;;;;;;;102790;1334;40657;-29
2023/03/04 06:25:01;;;;;;;8.10;5.10;;;;;;;;;;102921;1327;41272;-29
2023/03/04 06:27:34;;;;;;;8.20;4.60;;;;;;;;;;103296;1328;45668;-29
2023/03/04 06:30:08;;;;;;;8.40;4.80;;;;;;;;;;103303;1327;44053;-29
2023/03/04 06:32:39;;;;;;;7.80;4.60;;;;;;;;;;103324;1327;40075;-29
2023/03/04 06:35:14;;;;;;;7.30;4.50;;;;;;;;;;103033;1328;175796;-29
2023/03/04 06:37:48;;;;;;;8.70;4.90;;;;;;;;;;102783;1334;44328;-29
2023/03/04 06:40:26;;;;;;;8.50;4.90;;;;;;;;;;102834;1333;44415;-29
2023/03/04 06:43:01;;;;;;;7.40;4.70;;;;;;;;;;102816;1333;39571;-29
2023/03/04 06:45:32;;;;;;;7.40;4.60;;;;;;;;;;102955;1327;41323;-29
2023/03/04 06:48:02;;;;;;;7.90;4.60;;;;;;;;;;103275;1328;44256;-29
2023/03/04 06:50:33;;;;;;;7.10;4.30;;;;;;;;;;103296;1327;43002;-29
2023/03/04 06:53:06;;;;;;;7.20;4.50;;;;;;;;;;103302;1327;41052;-30
2023/03/04 06:55:42;;;;;;;8.20;4.90;;;;;;;;;;103104;1328;41141;-30
2023/03/04 06:58:16;;;;;;;7.40;4.40;;;;;;;;;;102761;1333;44513;-29
2023/03/04 07:00:47;;;;;;;6.40;3.90;;;;;;;;;;102822;1334;43213;-29
2023/03/04 07:03:18;;;;;;;8.50;4.20;;;;;;;;;;102813;1333;39586;-29
2023/03/04 07:05:48;;;;;;;7.30;4.50;;;;;;;;;;102908;1327;41229;-29
2023/03/04 07:08:19;;;;;;;6.40;4.50;;;;;;;;;;103295;1327;45648;-29
2023/03/04 07:10:53;;;;;;;7.80;4.20;;;;;;;;;;103295;1327;44018;-30
2023/03/04 07:13:28;;;;;;;7.30;4.30;;;;;;;;;;103319;1328;39354;-30
2023/03/04 07:16:03;;;;;;;6.90;4.30;;;;;;;;;;103130;1333;42310;-29
2023/03/04 07:18:36;;;;;;;8.10;4.70;;;;;;;;;;102831;1333;44636;-29
2023/03/04 07:21:09;;;;;;;9.30;4.70;;;;;;;;;;102821;1333;43011;-29
2023/03/04 07:23:40;;;;;;;8.10;4.30;;;;;;;;;;102840;1334;39765;-29
2023/03/04 07:26:10;;;;;;;8.00;4.70;;;;;;;;;;102956;1327;41562;-29
2023/03/04 07:28:41;;;;;;;8.10;4.50;;;;;;;;;;102809;1328;44468;-30
2023/03/04 07:31:21;;;;;;;7.60;4.40;;;;;;;;;;103334;1327;43034;-30
2023/03/04 07:33:52;;;;;;;7.60;4.40;;;;;;;;;;103308;1327;40839;-29
2023/03/04 07:36:22;;;;;;;8.30;4.70;;;;;;;;;;103180;1334;41328;-29
2023/03/04 07:38:54;;;;;;;7.70;4.30;;;;;;;;;;102815;1344;44332;-30
2023/03/04 07:41:28;;;;;;;7.70;4.60;;;;;;;;;;102828;1334;43070;-30
2023/03/04 07:43:59;;;;;;;7.10;4.20;;;;;;;;;;102839;1333;40741;-29
2023/03/04 07:46:32;;;;;;;7.30;3.80;;;;;;;;;;102892;1328;41463;-29
2023/03/04 07:49:04;;;;;;;6.90;3.90;;;;;;;;;;103292;1327;44537;-29
2023/03/04 07:51:37;;;;;;;6.70;4.00;;;;;;;;;;103284;1327;44132;-29
2023/03/04 07:54:13;;;;;;;7.80;4.40;;;;;;;;;;103328;1327;39583;-29
2023/03/04 07:56:46;;;;;;;6.60;3.90;;;;;;;;;;103166;1328;41353;-30
2023/03/04 07:59:19;;;;;;;7.20;4.00;;;;;;;;;;102821;1333;44554;-30
2023/03/04 08:01:52;;;;;;;7.70;4.30;;;;;;;;;;102821;1333;43292;-29
2023/03/04 08:04:22;;;;;;;6.00;3.90;;;;;;;;;;102793;1334;40777;-29
2023/03/04 08:06:55;;;;;;;6.20;3.50;;;;;;;;;;102845;1327;41513;-29
2023/03/04 08:09:25;;;;;;;6.60;3.80;;;;;;;;;;103288;1327;44126;-29
2023/03/04 08:11:58;;;;;;;6.90;3.90;;;;;;;;;;103334;1327;42681;-29
2023/03/04 08:14:28;;;;;;;6.30;3.90;;;;;;;;;;103319;1328;40603;-29
2023/03/04 08:17:01;;;;;;;6.20;3.90;;;;;;;;;;103167;1327;40720;-29
2023/03/04 08:19:32;;;;;;;6.30;3.60;;;;;;;;;;102810;1334;44702;-29
2023/03/04 08:22:02;;;;;;;6.60;3.80;;;;;;;;;;102855;1333;43233;-29
2023/03/04 08:24:35;;;;;;;6.60;3.50;;;;;;;;;;102820;1333;41114;-29
2023/03/04 08:27:09;;;;;;;7.00;4.00;;;;;;;;;;102888;1327;41769;-29
2023/03/04 08:29:42;;;;;;;6.30;3.80;;;;;;;;;;103346;1327;44381;-29
2023/03/04 08:32:18;;;;;;;7.40;4.00;;;;;;;;;;103314;1327;42983;-29
2023/03/04 08:34:49;;;;;;;6.70;3.90;;;;;;;;;;103268;1327;39485;-29
2023/03/04 08:37:27;;;;;;;6.80;3.80;;;;;;;;;;103199;1327;41151;-29
2023/03/04 08:40:00;;;;;;;5.60;3.50;;;;;;;;;;102807;1334;44463;-29
2023/03/04 08:42:35;;;;;;;7.10;3.80;;;;;;;;;;102830;1332;43635;-29
2023/03/04 08:45:13;;;;;;;6.00;3.80;;;;;;;;;;102815;1334;39599;-29
2023/03/04 08:47:50;;;;;;;6.30;3.70;;;;;;;;;;102652;1328;41236;-30
2023/03/04 08:50:26;;;;;;;6.70;3.80;;;;;;;;;;103206;1327;44355;-31
2023/03/04 08:53:01;;;;;;;6.40;3.90;;;;;;;;;;102969;1328;45144;-31
2023/03/04 08:55:38;;;;;;;6.40;3.90;;;;;;;;;;103149;1328;39553;-30
2023/03/04 08:58:10;;;;;;;6.30;3.80;;;;;;;;;;102893;1331;40920;-29
2023/03/04 09:00:44;;;;;;;6.00;3.70;;;;;;;;;;102899;1328;44364;-29
2023/03/04 09:03:18;;;;;;;5.50;3.50;;;;;;;;;;102926;1328;175765;-29
2023/03/04 09:05:50;;;;;;;6.50;3.60;;;;;;;;;;102994;1328;39459;-29
2023/03/04 09:08:26;;;;;;;7.10;3.80;;;;;;;;;;103014;1327;41027;-29
2023/03/04 09:11:06;;;;;;;6.40;3.70;;;;;;;;;;103147;1331;44275;-29
2023/03/04 09:13:37;;;;;;;7.50;3.80;;;;;;;;;;103104;1327;42765;-29
2023/03/04 09:16:12;;;;;;;6.00;3.90;;;;;;;;;;103148;1327;39620;-29
2023/03/04 09:18:43;;;;;;;6.10;3.70;;;;;;;;;;103084;1327;41250;-30
2023/03/04 09:21:16;;;;;;;;;;;;;;;;;;103143;1329;44204;-30
2023/03/04 09:23:49;;;;;;;6.10;3.40;;;;;;;;;;103310;1328;42408;-29
2023/03/04 09:26:24;;;;;;;7.00;3.60;;;;;;;;;;102860;1333;40840;-29
2023/03/04 09:28:58;;;;;;;6.80;3.40;;;;;;;;;;102817;1327;41183;-29
2023/03/04 09:31:31;;;;;;;6.40;3.60;;;;;;;;;;103210;1330;44344;-29
2023/03/04 09:34:02;;;;;;;7.00;3.70;;;;;;;;;;103183;1327;42948;-29
2023/03/04 09:36:35;;;;;;;7.30;4.00;;;;;;;;;;103264;1327;39753;-29
2023/03/04 09:39:11;;;;;;;6.90;4.00;;;;;;;;;;102982;1333;41949;-29
2023/03/04 09:41:51;;;;;;;7.40;4.10;;;;;;;;;;102573;1334;44427;-29
2023/03/04 09:44:31;;;;;;;8.20;3.80;;;;;;;;;;102815;1334;43019;-32
2023/03/04 09:47:09;;;;;;;7.70;4.00;;;;;;;;;;102713;1333;39654;-32
2023/03/04 09:49:53;;;;;;;7.90;4.50;;;;;;;;;;102836;1333;41167;-32
2023/03/04 09:52:44;;;;;;;8.30;4.40;;;;;;;;;;103253;1327;44263;-32
2023/03/04 09:55:24;;;;;;;8.50;4.50;;;;;;;;;;103211;1328;42946;-32
2023/03/04 09:58:09;;;;;;;8.30;4.20;;;;;;;;;;103222;1330;39522;-32
2023/03/04 10:00:47;;;;;;;7.90;4.30;;;;;;;;;;102712;1336;41497;-32
2023/03/04 10:03:31;;;;;;;8.10;4.30;;;;;;;;;;102883;1331;44404;-32
2023/03/04 10:06:05;;;;;;;7.20;4.20;;;;;;;;;;102714;1336;42986;-32
2023/03/04 10:08:46;;;;;;;7.50;3.90;;;;;;;;;;102655;1334;175842;-32
2023/03/04 10:11:25;;;;;;;7.90;4.10;;;;;;;;;;103081;1327;47446;-32
2023/03/04 10:14:37;;;;;;;7.30;3.80;;;;;;;;;;103009;1328;44527;-32
2023/03/04 10:17:24;;;;;;;7.90;4.00;;;;;;;;;;103124;1326;43099;-32
2023/03/04 10:20:03;;;;;;;6.80;4.10;;;;;;;;;;102976;1330;40864;-32
2023/03/04 10:22:49;;;;;;;7.90;4.30;;;;;;;;;;102810;1333;41149;-32
2023/03/04 10:25:29;;;;;;;7.00;4.10;;;;;;;;;;102719;1334;44357;-32
2023/03/04 10:28:04;;;;;;;8.10;3.80;;;;;;;;;;102700;1334;43454;-32
2023/03/04 10:30:48;;;;;;;6.40;3.70;;;;;;;;;;103072;1328;42523;-32
2023/03/04 10:33:24;;;;;;;7.20;3.70;;;;;;;;;;102970;1338;41275;-32
2023/03/04 10:36:06;;;;;;;7.00;4.00;;;;;;;;;;102949;1331;44303;-32
2023/03/04 10:38:44;;;;;;;6.90;3.80;;;;;;;;;;103191;1328;42949;-32
2023/03/04 10:41:19;;;;;;;7.70;3.70;;;;;;;;;;103068;1331;39648;-32
2023/03/04 10:44:03;;;;;;;6.60;4.00;;;;;;;;;;103171;1331;41506;-32
2023/03/04 10:46:45;;;;;;;7.40;4.10;;;;;;;;;;103096;1329;44274;-32
2023/03/04 10:49:28;;;;;;;8.30;4.00;;;;;;;;;;103144;1331;43396;-32
2023/03/04 10:52:20;;;;;;;7.50;3.80;;;;;;;;;;103140;1328;39609;-32
2023/03/04 10:55:00;;;;;;;7.30;3.60;;;;;;;;;;102678;1334;41019;-32
2023/03/04 10:57:43;;;;;;;7.00;3.60;;;;;;;;;;102711;1336;44426;-32
2023/03/04 11:00:35;;;;;;;6.60;3.50;;;;;;;;;;102953;1327;43323;-32
2023/03/04 11:03:37;;;;;;;7.50;3.80;;;;;;;;;;103330;1327;39443;-32
2023/03/04 11:06:20;;;;;;;;;;;;;;;;;;103244;1328;41077;-32
2023/03/04 11:09:03;;;;;;;6.60;3.70;;;;;;;;;;103155;1328;44246;-32
2023/03/04 11:11:44;;;;;;;7.00;3.70;;;;;;;;;;102846;1328;45028;-32
2023/03/04 11:14:29;;;;;;;7.10;4.00;;;;;;;;;;102766;1334;39593;-32
2023/03/04 11:17:20;;;;;;;6.90;3.30;;;;;;;;;;102809;1337;41197;-32
2023/03/04 11:20:03;;;;;;;6.80;3.80;;;;;;;;;;102707;1331;46625;-32
2023/03/04 11:22:48;;;;;;;6.40;3.60;;;;;;;;;;103262;1327;43103;-32
2023/03/04 11:25:28;;;;;;;7.50;3.60;;;;;;;;;;103310;1328;39819;-32
2023/03/04 11:28:06;;;;;;;7.20;3.80;;;;;;;;;;103283;1330;41003;-32
2023/03/04 11:30:46;;;;;;;6.80;3.70;;;;;;;;;;103081;1328;44236;-32
2023/03/04 11:33:35;;;;;;;7.10;3.60;;;;;;;;;;103167;1331;49367;-32
2023/03/04 11:36:30;;;;;;;6.90;3.40;;;;;;;;;;103095;1331;39699;-32
2023/03/04 11:39:17;;;;;;;6.40;3.40;;;;;;;;;;102889;1331;43070;-31
2023/03/04 11:41:56;;;;;;;5.80;3.30;;;;;;;;;;102870;1327;44153;-32
2023/03/04 11:44:28;;;;;;;6.70;3.40;;;;;;;;;;103047;1331;43594;-33
2023/03/04 11:47:36;;;;;;;6.90;3.60;;;;;;;;;;102869;1331;39665;-32
2023/03/04 11:50:33;;;;;;;7.60;3.30;;;;;;;;;;102868;1334;42625;-32
2023/03/04 11:53:31;;;;;;;6.80;3.70;;;;;;;;;;102920;1331;45826;-32
2023/03/04 11:56:20;;;;;;;6.80;3.40;;;;;;;;;;103198;1327;44060;-32
2023/03/04 11:59:26;;;;;;;6.50;3.30;;;;;;;;;;102901;1329;192857;-32
2023/03/04 12:02:18;;;;;;;6.30;3.30;;;;;;;;;;103054;1327;42350;-32
2023/03/04 12:05:43;;;;;;;6.70;3.50;;;;;;;;;;102628;1335;44954;-32
2023/03/04 12:08:52;;;;;;;5.80;3.20;;;;;;;;;;102651;1334;43924;-33
2023/03/04 12:11:39;;;;;;;5.90;3.20;;;;;;;;;;102581;1334;39652;-33
2023/03/04 12:14:35;;;;;;;5.90;3.20;;;;;;;;;;103095;1328;48123;-33
2023/03/04 12:17:45;;;;;;;5.60;3.00;;;;;;;;;;102331;1330;896316;-33
2023/03/04 12:20:42;;;;;;;6.20;3.20;;;;;;;;;;103175;1330;43194;-32
2023/03/04 12:23:32;;;;;;;5.90;3.10;;;;;;;;;;102814;1334;40977;-32
2023/03/04 12:26:13;;;;;;;5.70;3.30;;;;;;;;;;102460;1334;41278;-32
2023/03/04 12:28:57;;;;;;;5.60;3.30;;;;;;;;;;102500;1334;44437;-32
2023/03/04 12:31:40;;;;;;;6.10;3.20;;;;;;;;;;102640;1342;42995;-32
2023/03/04 12:34:48;;;;;;;6.10;3.30;;;;;;;;;;103022;1330;39696;-32
2023/03/04 12:37:45;;;;;;;5.70;3.10;;;;;;;;;;103121;1330;41613;-32
2023/03/04 12:40:27;;;;;;;5.80;3.20;;;;;;;;;;103155;1331;45301;-32
2023/03/04 12:43:30;;;;;;;6.00;3.30;;;;;;;;;;102913;1331;44280;-32
2023/03/04 12:46:14;;;;;;;6.70;3.30;;;;;;;;;;102569;1336;39768;-32
2023/03/04 12:48:55;;;;;;;6.00;3.00;;;;;;;;;;102612;1334;41398;-32
2023/03/04 12:51:36;;;;;;;5.90;3.10;;;;;;;;;;102610;1334;44485;-32
2023/03/04 12:54:20;;;;;;;5.60;3.00;;;;;;;;;;102882;1330;43430;-32
2023/03/04 12:56:55;;;;;;;5.30;2.90;;;;;;;;;;103104;1329;39526;-32
2023/03/04 12:59:32;;;;;;;5.80;3.20;;;;;;;;;;103100;1331;41213;-32
2023/03/04 13:02:26;;;;;;;6.20;3.10;;;;;;;;;;103141;1331;44400;-32
2023/03/04 13:05:18;;;;;;;6.20;2.90;;;;;;;;;;102676;1334;45361;-32
2023/03/04 13:08:00;;;;;;;5.90;2.90;;;;;;;;;;102626;1334;39568;-32
2023/03/04 13:10:29;;;;;;;;;;;;;;;;;;102626;1334;41439;-32
2023/03/04 13:13:03;;;;;;;5.90;3.30;;;;;;;;;;102632;1334;44442;-32
2023/03/04 13:15:36;;;;;;;5.70;3.00;;;;;;;;;;103104;1330;44579;-32
2023/03/04 13:18:39;;;;;;;5.60;2.80;;;;;;;;;;103129;1331;39682;-32
2023/03/04 13:21:23;;;;;;;5.50;2.90;;;;;;;;;;103133;1330;42367;-32
2023/03/04 13:23:54;;;;;;;5.10;2.90;;;;;;;;;;102927;1330;45698;-32
2023/03/04 13:26:33;;;;;;;6.70;3.10;;;;;;;;;;102649;1334;44134;-32
2023/03/04 13:29:35;;;;;;;5.10;2.90;;;;;;;;;;102609;1334;39707;-32
2023/03/04 13:32:12;;;;;;;5.80;3.40;;;;;;;;;;102607;1334;41250;-32
2023/03/04 13:34:53;;;;;;;5.20;2.90;;;;;;;;;;102876;1330;44394;-32
2023/03/04 13:37:35;;;;;;;5.50;2.60;;;;;;;;;;103135;1330;43038;-32
2023/03/04 13:40:37;;;;;;;6.10;2.60;;;;;;;;;;103117;1331;39515;-32
2023/03/04 13:43:38;;;;;;;5.60;2.80;;;;;;;;;;103119;1329;42445;-32
2023/03/04 13:46:42;;;;;;;5.00;2.80;;;;;;;;;;102964;1331;49968;-32
2023/03/04 13:49:25;;;;;;;5.70;2.80;;;;;;;;;;102462;1331;42987;-32
2023/03/04 13:51:56;;;;;;;5.00;2.50;;;;;;;;;;102942;1331;39542;-32
2023/03/04 13:54:32;;;;;;;5.40;2.60;;;;;;;;;;102890;1331;41210;-32
2023/03/04 13:57:21;;;;;;;5.60;2.40;;;;;;;;;;103093;1329;44446;-32
2023/03/04 13:59:56;;;;;;;4.90;2.40;;;;;;;;;;103146;1329;43147;-32
2023/03/04 14:02:27;;;;;;;4.90;2.80;;;;;;;;;;103086;1330;39497;-32
2023/03/04 14:05:03;;;;;;;5.40;2.30;;;;;;;;;;102899;1334;41491;-32
2023/03/04 14:07:35;;;;;;;4.70;2.40;;;;;;;;;;102662;1334;45634;-32
2023/03/04 14:10:20;;;;;;;5.00;2.40;;;;;;;;;;102637;1334;43279;-32
2023/03/04 14:12:53;;;;;;;4.50;2.30;;;;;;;;;;102638;1334;40907;-32
2023/03/04 14:15:26;;;;;;;4.90;2.30;;;;;;;;;;102414;1331;432378;-32
2023/03/04 14:18:00;;;;;;;4.30;2.20;;;;;;;;;;103124;1331;44658;-32
2023/03/04 14:20:33;;;;;;;5.00;2.20;;;;;;;;;;103143;1331;43262;-32
2023/03/04 14:23:04;;;;;;;5.60;2.50;;;;;;;;;;103165;1330;39684;-32
2023/03/04 14:25:39;;;;;;;4.90;2.40;;;;;;;;;;102895;1334;41470;-32
2023/03/04 14:28:15;;;;;;;5.50;2.40;;;;;;;;;;102597;1334;44441;-32
2023/03/04 14:30:53;;;;;;;5.40;2.40;;;;;;;;;;102655;1334;44184;-32
2023/03/04 14:33:25;;;;;;;6.10;2.40;;;;;;;;;;102645;1334;39608;-32
2023/03/04 14:36:01;;;;;;;5.10;2.20;;;;;;;;;;102864;1330;42127;-32
2023/03/04 14:38:35;;;;;;;5.40;2.60;;;;;;;;;;103131;1331;44486;-32
2023/03/04 14:41:09;;;;;;;5.60;2.50;;;;;;;;;;103220;1330;42940;-32
2023/03/04 14:43:49;;;;;;;6.70;2.30;;;;;;;;;;103125;1331;39815;-32
2023/03/04 14:46:26;;;;;;;5.20;2.30;;;;;;;;;;102703;1334;175743;-32
2023/03/04 14:48:57;;;;;;;5.20;2.30;;;;;;;;;;102654;1334;45826;-32
2023/03/04 14:51:40;;;;;;;5.50;2.20;;;;;;;;;;102616;1340;42905;-32
2023/03/04 14:54:35;;;;;;;5.10;2.20;;;;;;;;;;102639;1334;41350;-32
2023/03/04 14:57:25;;;;;;;4.50;2.20;;;;;;;;;;102835;1331;41287;-32
2023/03/04 14:59:55;;;;;;;4.80;2.30;;;;;;;;;;102884;1334;45658;-32
2023/03/04 15:02:35;;;;;;;4.30;2.00;;;;;;;;;;103040;1331;42963;-32
2023/03/04 15:05:17;;;;;;;4.80;2.20;;;;;;;;;;103075;1331;39523;-32
2023/03/04 15:07:53;;;;;;;4.60;2.20;;;;;;;;;;102656;1334;49506;-32
2023/03/04 15:10:26;;;;;;;4.80;2.20;;;;;;;;;;102629;1334;44384;-32
2023/03/04 15:13:00;;;;;;;5.40;2.30;;;;;;;;;;102639;1334;43751;-32
2023/03/04 15:15:41;;;;;;;5.00;2.30;;;;;;;;;;102677;1334;39700;-32
2023/03/04 15:18:22;;;;;;;4.40;2.10;;;;;;;;;;102598;1337;47937;-32
2023/03/04 15:21:05;;;;;;;5.70;2.10;;;;;;;;;;102614;1334;44473;-32
2023/03/04 15:23:40;;;;;;;4.90;2.00;;;;;;;;;;102606;1334;44476;-32
2023/03/04 15:26:12;;;;;;;5.00;2.10;;;;;;;;;;102587;1334;39599;-32